createdAt,value
2022-11-30T00:05:38.579Z,100.00
2022-11-30T01:04:32.826Z,100.00
2022-11-30T01:05:03.989Z,100.00
2022-11-30T01:05:41.896Z,100.00
2022-11-30T01:06:45.619Z,100.00
2022-11-30T01:07:52.860Z,100.00
2022-11-30T01:08:56.472Z,100.00
2022-11-30T01:10:00.397Z,100.00
2022-11-30T01:11:16.249Z,100.00
2022-11-30T01:12:20.059Z,100.00
2022-11-30T01:13:24.483Z,100.00
2022-11-30T01:52:42.684Z,99.22
2022-11-30T01:53:50.537Z,99.22
2022-11-30T01:55:00.283Z,99.99
2022-11-30T01:56:04.656Z,99.99
2022-11-30T01:57:16.013Z,100.00
2022-11-30T01:58:38.809Z,100.00
2022-11-30T01:59:39.698Z,99.77
2022-11-30T02:17:31.450Z,100.00
2022-11-30T02:20:31.407Z,100.00
2022-11-30T02:21:48.721Z,100.00
2022-11-30T02:23:23.890Z,100.00
2022-11-30T02:24:47.690Z,99.93
2022-11-30T02:25:57.532Z,100.00
2022-11-30T02:27:40.280Z,100.00
2022-11-30T02:29:02.778Z,99.66
2022-11-30T02:30:10.258Z,100.00
2022-11-30T03:04:18.625Z,99.89
2022-11-30T04:00:11.442Z,100.00
2022-11-30T04:03:09.662Z,100.00
2022-11-30T04:06:52.962Z,100.00
2022-11-30T04:09:01.737Z,100.00
2022-11-30T04:09:02.663Z,100.00
2022-11-30T04:10:10.274Z,100.00
2022-11-30T04:11:20.863Z,100.00
2022-11-30T04:27:12.729Z,100.00
2022-11-30T04:28:24.648Z,100.00
2022-11-30T04:29:29.171Z,100.00
2022-11-30T04:50:07.740Z,100.00
2022-11-30T05:41:20.579Z,100.00
2022-11-30T05:41:55.292Z,100.00
2022-11-30T06:13:09.669Z,100.00
2022-11-30T06:16:24.884Z,100.00
2022-11-30T06:17:28.834Z,100.00
2022-11-30T06:18:34.240Z,100.00
2022-11-30T06:19:41.239Z,100.00
2022-11-30T06:20:46.677Z,100.00
2022-11-30T06:21:52.356Z,100.00
2022-11-30T06:43:36.987Z,100.00
2022-11-30T06:44:55.724Z,100.00
2022-11-30T06:46:05.855Z,100.00
2022-11-30T06:47:15.372Z,100.00
2022-11-30T06:48:22.939Z,100.00
2022-11-30T06:49:29.109Z,100.00
2022-11-30T06:50:35.164Z,100.00
2022-11-30T06:51:47.477Z,100.00
2022-11-30T06:52:54.113Z,100.00
2022-11-30T06:54:06.386Z,100.00
2022-11-30T06:55:22.916Z,100.00
2022-11-30T06:56:28.979Z,99.90
2022-11-30T06:57:46.333Z,100.00
2022-11-30T06:58:43.245Z,100.00
2022-11-30T06:59:51.051Z,99.89
2022-11-30T07:28:49.377Z,99.19
2022-11-30T07:30:22.656Z,98.08
2022-11-30T07:33:31.246Z,98.36
2022-11-30T07:34:35.637Z,98.56
2022-11-30T07:35:44.598Z,98.48
2022-11-30T07:36:50.599Z,98.48
2022-11-30T07:37:55.064Z,97.97
2022-11-30T07:39:11.313Z,97.42
2022-11-30T07:40:34.752Z,97.58
2022-11-30T07:43:29.930Z,96.86
2022-11-30T07:44:36.042Z,96.93
2022-11-30T07:45:45.526Z,96.60
2022-11-30T07:46:54.624Z,96.38
2022-11-30T07:48:02.143Z,96.64
2022-11-30T07:49:26.602Z,96.67
2022-11-30T07:50:32.169Z,96.53
2022-11-30T07:51:38.285Z,96.13
2022-11-30T07:52:48.896Z,96.13
2022-11-30T07:53:54.758Z,96.51
2022-11-30T07:57:31.706Z,96.25
2022-11-30T07:57:48.971Z,95.63
2022-11-30T08:00:30.987Z,95.40
2022-11-30T08:01:51.620Z,95.10
2022-11-30T08:23:30.771Z,97.74
2022-11-30T08:24:33.971Z,97.63
2022-11-30T08:28:35.699Z,96.37
2022-11-30T08:29:36.598Z,96.07
2022-11-30T08:30:43.969Z,95.43
2022-11-30T08:31:46.950Z,95.24
2022-11-30T08:32:52.614Z,94.92
2022-11-30T08:34:05.308Z,95.11
2022-11-30T08:35:09.719Z,95.23
2022-11-30T08:36:19.045Z,95.23
2022-11-30T08:37:24.784Z,95.63
2022-11-30T08:38:29.042Z,95.63
2022-11-30T08:39:35.194Z,95.81
2022-11-30T08:40:48.653Z,96.31
2022-11-30T08:41:54.715Z,96.26
2022-11-30T08:43:02.024Z,96.26
2022-11-30T08:44:06.947Z,96.44
2022-11-30T08:45:12.905Z,96.01
2022-11-30T08:46:50.836Z,96.42
2022-11-30T08:47:25.855Z,96.28
2022-11-30T08:48:32.810Z,96.10
2022-11-30T08:49:37.027Z,96.50
2022-11-30T08:50:41.247Z,96.45
2022-11-30T08:52:55.084Z,96.17
2022-11-30T08:53:59.184Z,95.92
2022-11-30T08:55:03.464Z,95.92
2022-11-30T08:56:10.898Z,95.86
2022-11-30T08:57:18.078Z,95.86
2022-11-30T08:58:26.103Z,95.93
2022-11-30T08:59:32.189Z,96.18
2022-11-30T09:00:36.262Z,96.40
2022-11-30T09:01:40.393Z,96.50
2022-11-30T09:02:44.392Z,95.70
2022-11-30T09:03:51.802Z,96.06
2022-11-30T09:04:56.084Z,95.52
2022-11-30T09:06:08.285Z,95.50
2022-11-30T09:07:13.101Z,95.84
2022-11-30T09:08:17.339Z,95.65
2022-11-30T09:09:21.712Z,95.63
2022-11-30T09:10:25.954Z,95.35
2022-11-30T09:11:32.916Z,95.38
2022-11-30T09:12:39.415Z,94.77
2022-11-30T09:13:44.306Z,94.77
2022-11-30T09:14:54.168Z,94.96
2022-11-30T09:15:56.421Z,95.02
2022-11-30T09:17:31.317Z,94.91
2022-11-30T10:14:03.514Z,92.27
2022-11-30T10:15:09.554Z,92.33
2022-11-30T10:16:44.818Z,91.79
2022-11-30T10:17:56.747Z,92.80
2022-11-30T10:19:09.630Z,92.80
2022-11-30T10:20:37.316Z,92.32
2022-11-30T10:21:49.929Z,92.00
2022-11-30T10:22:59.928Z,92.00
2022-11-30T10:24:31.124Z,92.04
2022-11-30T10:25:59.879Z,90.96
2022-11-30T10:29:33.762Z,90.10
2022-11-30T10:30:39.744Z,90.62
2022-11-30T10:31:46.904Z,90.64
2022-11-30T10:33:00.027Z,90.62
2022-11-30T10:34:08.471Z,89.82
2022-11-30T10:35:18.298Z,90.16
2022-11-30T10:36:42.240Z,90.75
2022-11-30T10:37:47.551Z,91.30
2022-11-30T10:38:54.737Z,91.78
2022-11-30T10:40:21.061Z,91.78
2022-11-30T10:43:36.272Z,92.55
2022-11-30T10:44:45.259Z,92.46
2022-11-30T10:45:51.363Z,92.46
2022-11-30T10:47:01.883Z,92.18
2022-11-30T10:48:18.135Z,91.91
2022-11-30T10:49:29.661Z,91.60
2022-11-30T10:50:34.098Z,91.18
2022-11-30T10:51:41.424Z,91.06
2022-11-30T10:52:50.714Z,91.61
2022-11-30T10:53:54.884Z,90.97
2022-11-30T10:55:04.624Z,90.63
2022-11-30T10:56:11.676Z,90.68
2022-11-30T10:57:17.707Z,90.83
2022-11-30T10:58:36.739Z,90.94
2022-11-30T10:59:48.331Z,90.94
2022-11-30T11:01:14.075Z,91.22
2022-11-30T11:02:39.621Z,91.22
2022-11-30T11:03:51.417Z,91.24
2022-11-30T11:05:16.923Z,90.80
2022-11-30T11:06:28.360Z,90.50
2022-11-30T11:07:33.830Z,91.40
2022-11-30T11:08:38.604Z,91.23
2022-11-30T11:09:48.362Z,91.56
2022-11-30T11:10:52.846Z,90.72
2022-11-30T11:12:03.542Z,90.72
2022-11-30T11:13:20.552Z,90.87
2022-11-30T11:14:38.022Z,90.92
2022-11-30T11:15:43.296Z,90.92
2022-11-30T11:17:01.924Z,90.86
2022-11-30T11:18:21.351Z,90.75
2022-11-30T11:19:36.338Z,91.20
2022-11-30T11:20:42.540Z,91.05
2022-11-30T11:21:54.742Z,90.25
2022-11-30T11:23:16.884Z,90.09
2022-11-30T11:24:25.868Z,90.48
2022-11-30T11:25:55.171Z,90.38
2022-11-30T11:27:16.288Z,90.59
2022-11-30T11:28:45.522Z,90.41
2022-11-30T11:30:17.558Z,90.27
2022-11-30T11:31:49.971Z,89.41
2022-11-30T11:46:31.720Z,89.31
2022-11-30T11:47:44.761Z,89.34
2022-11-30T11:48:52.183Z,88.90
2022-11-30T11:50:15.347Z,88.90
2022-11-30T11:51:22.647Z,88.57
2022-11-30T11:52:27.061Z,88.32
2022-11-30T11:53:51.579Z,88.05
2022-11-30T11:54:58.203Z,87.93
2022-11-30T11:56:07.855Z,87.97
2022-11-30T11:57:17.856Z,87.76
2022-11-30T11:58:27.609Z,87.76
2022-11-30T11:59:46.782Z,87.43
2022-11-30T12:01:10.598Z,88.03
2022-11-30T12:02:24.177Z,87.64
2022-11-30T12:03:44.532Z,87.27
2022-11-30T12:05:03.534Z,86.43
2022-11-30T12:06:17.621Z,86.26
2022-11-30T12:07:24.758Z,87.44
2022-11-30T12:08:43.769Z,87.31
2022-11-30T12:10:02.254Z,87.29
2022-11-30T12:11:13.559Z,87.20
2022-11-30T12:12:17.815Z,87.29
2022-11-30T12:13:25.311Z,87.29
2022-11-30T12:14:31.882Z,87.67
2022-11-30T12:16:00.165Z,87.63
2022-11-30T12:17:24.487Z,86.82
2022-11-30T12:18:59.103Z,87.21
2022-11-30T12:20:30.829Z,87.20
2022-11-30T12:21:48.061Z,86.46
2022-11-30T12:23:01.100Z,87.17
2022-11-30T12:24:08.176Z,87.02
2022-11-30T12:25:29.637Z,87.20
2022-11-30T12:26:54.709Z,87.04
2022-11-30T12:33:57.178Z,88.51
2022-11-30T12:35:23.441Z,87.84
2022-11-30T12:36:35.179Z,88.02
2022-11-30T12:37:47.285Z,88.12
2022-11-30T12:39:11.509Z,88.21
2022-11-30T12:40:33.609Z,87.74
2022-11-30T12:41:49.740Z,88.30
2022-11-30T12:43:02.683Z,88.66
2022-11-30T12:44:27.518Z,88.46
2022-11-30T12:45:45.470Z,88.30
2022-11-30T12:47:07.277Z,88.39
2022-11-30T12:48:34.996Z,88.05
2022-11-30T12:50:00.525Z,87.19
2022-11-30T12:51:11.729Z,87.47
2022-11-30T12:52:54.661Z,87.50
2022-11-30T12:54:18.990Z,87.12
2022-11-30T12:55:49.791Z,86.47
2022-11-30T12:56:57.515Z,86.80
2022-11-30T12:58:19.171Z,86.67
2022-11-30T13:00:06.990Z,86.67
2022-11-30T13:01:52.098Z,86.73
2022-11-30T13:03:10.734Z,86.36
2022-11-30T13:04:58.741Z,86.51
2022-11-30T13:07:42.707Z,86.29
2022-11-30T13:19:35.098Z,86.38
2022-11-30T13:33:41.259Z,87.44
2022-11-30T13:34:45.957Z,87.44
2022-11-30T13:35:58.752Z,87.85
2022-11-30T13:37:08.767Z,87.85
2022-11-30T13:38:38.691Z,87.94
2022-11-30T13:39:31.381Z,87.74
2022-11-30T13:40:37.432Z,87.89
2022-11-30T13:42:01.541Z,88.06
2022-11-30T13:43:24.879Z,88.47
2022-11-30T13:44:50.084Z,88.24
2022-11-30T13:46:26.225Z,87.83
2022-11-30T13:47:35.605Z,87.99
2022-11-30T13:48:48.828Z,88.25
2022-11-30T13:50:03.611Z,88.25
2022-11-30T13:51:13.056Z,88.45
2022-11-30T13:52:24.080Z,88.45
2022-11-30T13:53:35.157Z,88.83
2022-11-30T13:54:53.516Z,88.51
2022-11-30T13:56:05.384Z,87.88
2022-11-30T13:57:20.976Z,88.27
2022-11-30T13:58:31.405Z,88.23
2022-11-30T13:59:43.588Z,88.32
2022-11-30T14:00:47.715Z,88.48
2022-11-30T14:01:55.079Z,88.57
2022-11-30T14:03:25.833Z,88.87
2022-11-30T14:04:36.445Z,88.39
2022-11-30T14:05:47.520Z,88.48
2022-11-30T14:07:06.570Z,89.07
2022-11-30T14:08:14.225Z,89.10
2022-11-30T14:09:45.205Z,89.10
2022-11-30T14:11:16.586Z,89.89
2022-11-30T14:12:35.749Z,89.81
2022-11-30T14:13:40.118Z,89.79
2022-11-30T14:14:47.383Z,90.15
2022-11-30T14:15:54.439Z,90.54
2022-11-30T14:17:02.095Z,90.55
2022-11-30T14:18:28.654Z,90.58
2022-11-30T14:19:34.460Z,90.49
2022-11-30T14:20:53.462Z,90.96
2022-11-30T14:21:58.991Z,90.77
2022-11-30T14:23:17.930Z,90.73
2022-11-30T14:24:31.809Z,90.98
2022-11-30T14:25:39.442Z,91.44
2022-11-30T14:26:49.474Z,91.72
2022-11-30T14:27:56.173Z,91.59
2022-11-30T14:29:07.493Z,91.33
2022-11-30T14:30:22.746Z,91.42
2022-11-30T14:31:29.805Z,91.28
2022-11-30T14:32:42.639Z,91.18
2022-11-30T14:33:52.573Z,91.28
2022-11-30T14:35:11.480Z,91.51
2022-11-30T14:36:16.452Z,91.56
2022-11-30T14:37:29.314Z,91.56
2022-11-30T14:38:38.797Z,91.88
2022-11-30T14:39:45.764Z,91.88
2022-11-30T14:40:57.193Z,92.02
2022-11-30T14:42:03.015Z,91.70
2022-11-30T14:43:06.995Z,91.92
2022-11-30T14:44:14.040Z,91.92
2022-11-30T14:45:22.346Z,91.69
2022-11-30T14:46:26.761Z,92.22
2022-11-30T14:47:35.816Z,92.04
2022-11-30T14:48:39.900Z,92.04
2022-11-30T14:49:52.846Z,92.43
2022-11-30T14:51:02.431Z,92.75
2022-11-30T14:52:06.640Z,92.41
2022-11-30T14:53:22.833Z,92.75
2022-11-30T14:54:55.507Z,92.95
2022-11-30T14:56:42.966Z,93.02
2022-11-30T14:58:53.100Z,92.88
2022-11-30T15:00:05.187Z,93.37
2022-11-30T15:01:45.417Z,93.61
2022-11-30T15:02:45.096Z,93.53
2022-11-30T15:03:53.064Z,94.02
2022-11-30T17:32:25.567Z,100.00
2022-11-30T17:33:42.295Z,100.00
2022-11-30T17:34:47.574Z,100.00
2022-11-30T17:36:24.888Z,100.00
2022-11-30T17:37:23.104Z,100.00
2022-11-30T17:38:29.264Z,100.00
2022-11-30T17:39:33.849Z,100.00
2022-11-30T17:40:42.523Z,100.00
2022-11-30T17:41:48.229Z,100.00
2022-11-30T17:42:52.445Z,100.00
2022-11-30T17:43:56.698Z,100.00
2022-11-30T17:45:01.065Z,100.00
2022-11-30T17:46:11.574Z,99.75
2022-11-30T17:47:17.055Z,99.61
2022-11-30T17:48:21.351Z,99.99
2022-11-30T17:49:27.312Z,99.99
2022-11-30T17:50:35.903Z,99.36
2022-11-30T17:51:42.006Z,98.94
2022-11-30T17:52:46.317Z,98.53
2022-11-30T17:53:53.370Z,98.30
2022-11-30T17:54:58.906Z,98.04
2022-11-30T17:56:06.102Z,97.97
2022-11-30T17:57:13.125Z,97.97
2022-11-30T17:58:20.264Z,97.73
2022-11-30T17:59:24.583Z,96.95
2022-11-30T18:00:29.175Z,97.34
2022-11-30T18:01:33.626Z,97.34
2022-11-30T18:02:38.009Z,97.36
2022-11-30T18:03:42.200Z,96.90
2022-11-30T18:04:46.809Z,97.23
2022-11-30T18:05:52.895Z,96.88
2022-11-30T18:06:57.142Z,97.03
2022-11-30T18:08:02.917Z,97.03
2022-11-30T18:09:07.306Z,96.40
2022-11-30T18:10:12.432Z,96.36
2022-11-30T18:11:20.199Z,96.36
2022-11-30T18:12:24.504Z,95.92
2022-11-30T18:13:30.538Z,96.07
2022-11-30T18:14:37.954Z,95.88
